createdAt,value
2022-12-09T00:09:58.978Z,19.83
2022-12-09T00:15:08.355Z,16.90
2022-12-09T00:37:07.097Z,18.70
2022-12-09T00:48:38.062Z,15.65
2022-12-09T00:54:26.566Z,14.60
2022-12-09T00:59:40.216Z,15.43
2022-12-09T01:05:51.100Z,16.33
2022-12-09T01:11:06.980Z,14.38
2022-12-09T01:16:51.298Z,14.45
2022-12-09T01:21:59.361Z,17.33
2022-12-09T01:27:06.057Z,14.73
2022-12-09T02:06:49.040Z,13.77
2022-12-09T02:18:10.122Z,16.15
2022-12-09T02:30:32.797Z,12.07
2022-12-09T02:36:15.191Z,14.73
2022-12-09T02:47:13.885Z,14.13
2022-12-09T02:52:55.960Z,15.77
2022-12-09T02:58:15.078Z,15.75
2022-12-09T03:03:30.455Z,14.30
2022-12-09T03:08:51.566Z,15.63
2022-12-09T03:26:00.952Z,16.08
2022-12-09T03:31:10.004Z,15.80
2022-12-09T03:36:16.989Z,13.50
2022-12-09T03:41:29.718Z,15.05
2022-12-09T03:52:07.229Z,15.30
2022-12-09T03:57:18.490Z,17.60
2022-12-09T04:02:26.793Z,14.90
2022-12-09T04:07:30.972Z,16.00
2022-12-09T04:12:32.735Z,15.88
2022-12-09T04:17:35.178Z,19.70
2022-12-09T04:22:36.950Z,17.20
2022-12-09T04:27:46.810Z,19.58
2022-12-09T04:32:48.554Z,18.38
2022-12-09T04:37:50.436Z,16.30
2022-12-09T04:42:54.199Z,15.40
2022-12-09T04:47:58.311Z,13.63
2022-12-09T04:53:02.421Z,16.02
2022-12-09T05:04:28.292Z,15.25
2022-12-09T05:22:48.877Z,22.33
2022-12-09T05:27:58.019Z,20.38
2022-12-09T05:33:07.722Z,20.95
2022-12-09T05:38:09.572Z,22.45
2022-12-09T05:48:26.683Z,17.75
2022-12-09T05:53:29.152Z,18.90
2022-12-09T05:58:31.344Z,23.88
2022-12-09T06:03:36.614Z,26.48
2022-12-09T06:08:46.743Z,30.90
2022-12-09T06:13:49.712Z,26.15
2022-12-09T06:18:51.777Z,23.15
2022-12-09T06:23:53.669Z,21.35
2022-12-09T06:28:59.637Z,23.52
2022-12-09T06:34:02.047Z,22.95
2022-12-09T06:39:10.480Z,22.08
2022-12-09T06:44:17.214Z,20.15
2022-12-09T06:49:32.293Z,19.60
2022-12-09T06:54:34.061Z,22.13
2022-12-09T06:59:45.221Z,20.33
2022-12-09T07:04:47.203Z,19.67
2022-12-09T07:09:49.489Z,23.40
2022-12-09T07:14:51.536Z,18.92
2022-12-09T07:19:53.508Z,21.05
2022-12-09T07:24:55.391Z,19.90
2022-12-09T07:30:01.281Z,26.48
2022-12-09T07:35:03.173Z,22.33
2022-12-09T07:40:06.189Z,22.75
2022-12-09T07:50:39.024Z,24.27
2022-12-09T07:55:40.723Z,25.02
2022-12-09T08:00:42.246Z,23.23
2022-12-09T08:06:24.728Z,25.40
2022-12-09T08:11:30.195Z,35.03
2022-12-09T08:16:32.805Z,68.70
2022-12-09T08:21:34.527Z,54.58
2022-12-09T08:26:36.594Z,42.15
2022-12-09T08:31:41.876Z,25.30
2022-12-09T08:36:47.092Z,24.55
2022-12-09T08:41:49.037Z,27.80
2022-12-09T08:46:56.187Z,25.38
2022-12-09T08:52:02.669Z,26.55
2022-12-09T08:57:07.177Z,28.13
2022-12-09T09:02:15.666Z,31.27
2022-12-09T09:07:21.520Z,26.13
2022-12-09T09:12:23.550Z,22.05
2022-12-09T09:17:25.531Z,20.48
2022-12-09T09:22:27.304Z,20.75
2022-12-09T09:27:29.039Z,22.73
2022-12-09T09:32:30.654Z,19.65
2022-12-09T09:37:33.041Z,22.90
2022-12-09T09:42:43.914Z,21.83
2022-12-09T09:47:51.181Z,22.38
2022-12-09T09:52:55.203Z,22.38
2022-12-09T09:58:14.410Z,23.65
2022-12-09T10:04:06.939Z,23.20
2022-12-09T10:09:21.101Z,26.33
2022-12-09T10:14:49.040Z,26.70
2022-12-09T10:19:59.485Z,21.20
2022-12-09T10:25:22.290Z,21.60
2022-12-09T10:30:25.087Z,23.05
2022-12-09T10:35:32.534Z,23.33
2022-12-09T10:40:46.300Z,27.90
2022-12-09T10:51:30.038Z,21.92
2022-12-09T10:56:38.614Z,24.45
2022-12-09T11:01:59.973Z,26.52
2022-12-09T11:07:21.035Z,24.38
2022-12-09T11:12:32.049Z,22.05
2022-12-09T11:17:38.364Z,21.88
2022-12-09T11:22:44.050Z,20.75
2022-12-09T11:27:50.864Z,23.63
2022-12-09T11:33:08.077Z,22.35
2022-12-09T11:38:31.605Z,23.60
2022-12-09T11:43:50.773Z,25.00
2022-12-09T11:49:03.738Z,23.20
2022-12-09T11:54:13.562Z,25.85
2022-12-09T11:59:34.835Z,24.98
2022-12-09T12:04:48.644Z,27.75
2022-12-09T12:09:56.595Z,22.38
2022-12-09T12:20:53.956Z,23.88
2022-12-09T12:39:00.212Z,23.70
2022-12-09T12:56:30.619Z,28.17
2022-12-09T13:19:40.747Z,23.60
2022-12-09T13:36:58.969Z,23.67
2022-12-09T13:42:31.413Z,23.85
2022-12-09T13:48:00.624Z,20.67
2022-12-09T13:59:22.203Z,24.52
2022-12-09T14:05:04.091Z,21.65
2022-12-09T14:10:46.287Z,23.42
2022-12-09T14:16:16.482Z,21.25
2022-12-09T14:21:17.880Z,23.08
2022-12-09T14:26:37.079Z,23.25
2022-12-09T14:32:02.295Z,29.67
2022-12-09T14:37:33.568Z,23.75
2022-12-09T14:43:03.998Z,25.95
2022-12-09T14:48:12.032Z,26.90
2022-12-09T14:53:25.019Z,25.63
2022-12-09T14:58:29.206Z,27.02
2022-12-09T15:03:35.553Z,26.52
2022-12-09T15:08:41.700Z,27.10
2022-12-09T15:13:49.233Z,28.52
2022-12-09T15:18:52.317Z,30.23
2022-12-09T15:23:54.125Z,31.20
2022-12-09T15:28:57.024Z,29.73
2022-12-09T15:34:08.982Z,31.67
2022-12-09T15:39:25.346Z,29.17
2022-12-09T15:44:31.459Z,28.75
2022-12-09T15:49:40.528Z,34.58
2022-12-09T15:54:44.708Z,30.35
2022-12-09T16:00:07.706Z,31.23
2022-12-09T16:05:10.371Z,32.25
2022-12-09T16:10:16.905Z,28.70
2022-12-09T16:15:42.800Z,30.92
2022-12-09T16:20:55.697Z,26.05
2022-12-09T16:26:07.034Z,32.83
2022-12-09T16:31:17.939Z,34.60
2022-12-09T16:36:30.917Z,29.60
2022-12-09T16:41:51.141Z,35.38
2022-12-09T16:52:04.271Z,33.45
2022-12-09T16:57:05.830Z,31.27
2022-12-09T17:02:18.566Z,32.10
2022-12-09T17:07:20.102Z,31.13
2022-12-09T17:12:21.654Z,31.65
2022-12-09T17:17:23.137Z,30.05
2022-12-09T17:22:24.907Z,27.08
2022-12-09T17:27:26.330Z,31.38
2022-12-09T17:32:29.343Z,25.95
2022-12-09T17:37:30.947Z,33.83
2022-12-09T17:42:33.122Z,31.52
2022-12-09T17:47:34.791Z,29.48
2022-12-09T17:52:36.278Z,30.30
2022-12-09T17:57:47.686Z,29.90
2022-12-09T18:02:52.992Z,33.50
2022-12-09T18:07:54.596Z,33.58
2022-12-09T18:12:56.208Z,30.48
2022-12-09T18:17:57.684Z,35.53
2022-12-09T18:22:59.134Z,32.67
2022-12-09T18:28:00.580Z,31.25
2022-12-09T18:33:01.994Z,34.03
2022-12-09T18:38:09.658Z,32.13
2022-12-09T18:43:13.989Z,30.60
2022-12-09T18:48:15.306Z,30.63
2022-12-09T18:53:16.991Z,34.05
2022-12-09T18:58:27.259Z,31.02
2022-12-09T19:03:40.051Z,39.67
2022-12-09T19:08:41.519Z,42.03
2022-12-09T19:13:42.905Z,38.22
2022-12-09T19:18:45.153Z,37.38
2022-12-09T19:23:47.796Z,37.50
2022-12-09T19:28:58.335Z,40.33
2022-12-09T19:34:02.033Z,41.38
2022-12-09T19:39:05.742Z,42.08
2022-12-09T19:44:07.874Z,46.40
2022-12-09T19:49:12.331Z,38.00
2022-12-09T19:54:14.354Z,38.38
2022-12-09T19:59:15.846Z,35.60
2022-12-09T20:04:47.467Z,41.55
2022-12-09T20:09:41.797Z,40.78
2022-12-09T20:14:43.325Z,41.08
2022-12-09T20:19:44.946Z,43.28
2022-12-09T20:30:02.041Z,43.70
2022-12-09T20:35:08.154Z,42.03
2022-12-09T20:40:11.108Z,41.00
2022-12-09T20:45:15.166Z,37.15
2022-12-09T20:50:16.751Z,37.88
2022-12-09T20:55:18.172Z,37.35
2022-12-09T21:00:19.609Z,37.13
2022-12-09T21:05:21.079Z,35.65
2022-12-09T21:10:22.465Z,32.97
2022-12-09T21:15:24.019Z,39.95
2022-12-09T21:20:25.684Z,42.83
2022-12-09T21:25:27.188Z,40.83
2022-12-09T21:30:28.709Z,36.13
2022-12-09T21:35:30.484Z,39.63
2022-12-09T21:40:32.311Z,36.88
2022-12-09T21:45:34.593Z,37.13
2022-12-09T21:50:36.092Z,31.75
2022-12-09T21:55:37.482Z,40.60
2022-12-09T22:00:38.931Z,41.10
2022-12-09T22:05:43.164Z,41.53
2022-12-09T22:10:44.642Z,61.90
2022-12-09T22:15:46.069Z,39.92
2022-12-09T22:21:22.964Z,38.90
2022-12-09T22:26:11.624Z,35.28
2022-12-09T22:31:19.480Z,34.10
2022-12-09T22:36:22.084Z,36.85
2022-12-09T22:41:25.830Z,39.92
2022-12-09T22:46:30.519Z,37.15
2022-12-09T22:51:35.059Z,36.50
2022-12-09T22:56:39.777Z,36.22
2022-12-09T23:01:44.247Z,35.30
2022-12-09T23:06:45.801Z,35.83
2022-12-09T23:11:47.723Z,37.45
2022-12-09T23:16:49.180Z,35.75
2022-12-09T23:21:50.665Z,39.80
2022-12-09T23:26:54.855Z,36.80
2022-12-09T23:31:56.290Z,34.72
2022-12-09T23:36:57.750Z,34.47
2022-12-09T23:41:59.160Z,35.58
2022-12-09T23:47:00.678Z,37.50
2022-12-09T23:52:02.134Z,34.95
2022-12-09T23:57:03.710Z,34.40
